sensor_id;sensor_type;location;lat;lon;timestamp;P1;durP1;ratioP1;P2;durP2;ratioP2
5458;SDS011;2752;49.992;8.422;2023-06-22T00:00:44;8.07;;;3.97;;
5458;SDS011;2752;49.992;8.422;2023-06-22T00:03:12;7.63;;;5.00;;
5458;SDS011;2752;49.992;8.422;2023-06-22T00:05:38;7.07;;;4.27;;
5458;SDS011;2752;49.992;8.422;2023-06-22T00:08:05;8.30;;;5.07;;
5458;SDS011;2752;49.992;8.422;2023-06-22T00:10:32;8.40;;;4.83;;
5458;SDS011;2752;49.992;8.422;2023-06-22T00:13:00;10.73;;;5.03;;
5458;SDS011;2752;49.992;8.422;2023-06-22T00:15:26;8.13;;;4.33;;
5458;SDS011;2752;49.992;8.422;2023-06-22T00:17:53;9.10;;;4.93;;
5458;SDS011;2752;49.992;8.422;2023-06-22T00:20:22;9.20;;;4.67;;
5458;SDS011;2752;49.992;8.422;2023-06-22T00:22:52;8.00;;;4.83;;
5458;SDS011;2752;49.992;8.422;2023-06-22T00:25:19;6.20;;;4.30;;
5458;SDS011;2752;49.992;8.422;2023-06-22T00:27:46;7.97;;;4.60;;
5458;SDS011;2752;49.992;8.422;2023-06-22T00:30:14;6.83;;;4.87;;
5458;SDS011;2752;49.992;8.422;2023-06-22T00:32:42;6.77;;;4.20;;
5458;SDS011;2752;49.992;8.422;2023-06-22T00:35:09;9.90;;;4.73;;
5458;SDS011;2752;49.992;8.422;2023-06-22T00:37:35;10.67;;;5.20;;
5458;SDS011;2752;49.992;8.422;2023-06-22T00:40:03;8.30;;;4.77;;
5458;SDS011;2752;49.992;8.422;2023-06-22T00:42:31;9.10;;;5.70;;
5458;SDS011;2752;49.992;8.422;2023-06-22T00:44:57;8.10;;;4.63;;
5458;SDS011;2752;49.992;8.422;2023-06-22T00:47:25;10.10;;;5.50;;
5458;SDS011;2752;49.992;8.422;2023-06-22T00:49:53;7.13;;;4.33;;
5458;SDS011;2752;49.992;8.422;2023-06-22T00:52:20;8.00;;;5.33;;
5458;SDS011;2752;49.992;8.422;2023-06-22T00:54:52;9.20;;;4.50;;
5458;SDS011;2752;49.992;8.422;2023-06-22T00:57:20;8.80;;;5.40;;
5458;SDS011;2752;49.992;8.422;2023-06-22T00:59:48;9.87;;;5.20;;
5458;SDS011;2752;49.992;8.422;2023-06-22T01:02:14;6.23;;;4.53;;
5458;SDS011;2752;49.992;8.422;2023-06-22T01:04:42;10.57;;;6.27;;
5458;SDS011;2752;49.992;8.422;2023-06-22T01:07:10;9.90;;;5.47;;
5458;SDS011;2752;49.992;8.422;2023-06-22T01:09:45;10.57;;;5.87;;
5458;SDS011;2752;49.992;8.422;2023-06-22T01:12:15;11.77;;;4.93;;
5458;SDS011;2752;49.992;8.422;2023-06-22T01:14:46;13.30;;;6.60;;
5458;SDS011;2752;49.992;8.422;2023-06-22T01:17:17;8.27;;;5.73;;
5458;SDS011;2752;49.992;8.422;2023-06-22T01:19:48;10.40;;;6.60;;
5458;SDS011;2752;49.992;8.422;2023-06-22T01:22:17;10.60;;;6.43;;
5458;SDS011;2752;49.992;8.422;2023-06-22T01:24:51;8.47;;;5.27;;
5458;SDS011;2752;49.992;8.422;2023-06-22T01:27:28;10.50;;;6.20;;
5458;SDS011;2752;49.992;8.422;2023-06-22T01:30:03;9.53;;;6.00;;
5458;SDS011;2752;49.992;8.422;2023-06-22T01:32:33;11.07;;;6.50;;
5458;SDS011;2752;49.992;8.422;2023-06-22T01:35:03;11.53;;;6.77;;
5458;SDS011;2752;49.992;8.422;2023-06-22T01:37:31;12.03;;;7.00;;
5458;SDS011;2752;49.992;8.422;2023-06-22T01:40:00;12.13;;;6.90;;
5458;SDS011;2752;49.992;8.422;2023-06-22T01:42:29;10.83;;;6.63;;
5458;SDS011;2752;49.992;8.422;2023-06-22T01:44:57;13.07;;;6.53;;
5458;SDS011;2752;49.992;8.422;2023-06-22T01:47:26;11.23;;;6.10;;
5458;SDS011;2752;49.992;8.422;2023-06-22T01:49:53;10.83;;;6.47;;
5458;SDS011;2752;49.992;8.422;2023-06-22T01:52:21;11.67;;;6.80;;
5458;SDS011;2752;49.992;8.422;2023-06-22T01:54:47;12.37;;;6.70;;
5458;SDS011;2752;49.992;8.422;2023-06-22T01:57:14;11.23;;;6.30;;
5458;SDS011;2752;49.992;8.422;2023-06-22T01:59:43;11.77;;;6.03;;
5458;SDS011;2752;49.992;8.422;2023-06-22T02:02:16;13.80;;;6.27;;
5458;SDS011;2752;49.992;8.422;2023-06-22T02:04:54;10.17;;;6.60;;
5458;SDS011;2752;49.992;8.422;2023-06-22T02:07:26;10.87;;;6.67;;
5458;SDS011;2752;49.992;8.422;2023-06-22T02:09:57;10.13;;;7.00;;
5458;SDS011;2752;49.992;8.422;2023-06-22T02:12:25;14.40;;;6.90;;
5458;SDS011;2752;49.992;8.422;2023-06-22T02:14:54;12.50;;;6.53;;
5458;SDS011;2752;49.992;8.422;2023-06-22T02:17:21;12.70;;;7.50;;
5458;SDS011;2752;49.992;8.422;2023-06-22T02:19:47;11.27;;;6.90;;
5458;SDS011;2752;49.992;8.422;2023-06-22T02:22:15;12.20;;;7.17;;
5458;SDS011;2752;49.992;8.422;2023-06-22T02:24:42;11.80;;;6.90;;
5458;SDS011;2752;49.992;8.422;2023-06-22T02:27:09;10.47;;;6.77;;
5458;SDS011;2752;49.992;8.422;2023-06-22T02:29:36;11.30;;;6.53;;
5458;SDS011;2752;49.992;8.422;2023-06-22T02:32:03;13.97;;;6.93;;
5458;SDS011;2752;49.992;8.422;2023-06-22T02:34:30;10.10;;;6.03;;
5458;SDS011;2752;49.992;8.422;2023-06-22T02:36:58;12.40;;;6.87;;
5458;SDS011;2752;49.992;8.422;2023-06-22T02:39:28;14.10;;;6.40;;
5458;SDS011;2752;49.992;8.422;2023-06-22T02:41:55;15.53;;;8.33;;
5458;SDS011;2752;49.992;8.422;2023-06-22T02:44:22;10.73;;;6.37;;
5458;SDS011;2752;49.992;8.422;2023-06-22T02:46:49;11.27;;;6.90;;
5458;SDS011;2752;49.992;8.422;2023-06-22T02:49:15;11.50;;;7.10;;
5458;SDS011;2752;49.992;8.422;2023-06-22T02:51:44;10.93;;;6.43;;
5458;SDS011;2752;49.992;8.422;2023-06-22T02:54:11;9.40;;;6.10;;
5458;SDS011;2752;49.992;8.422;2023-06-22T02:56:39;12.23;;;7.27;;
5458;SDS011;2752;49.992;8.422;2023-06-22T02:59:08;9.90;;;7.53;;
5458;SDS011;2752;49.992;8.422;2023-06-22T03:01:36;13.40;;;6.13;;
5458;SDS011;2752;49.992;8.422;2023-06-22T03:04:04;10.23;;;6.47;;
5458;SDS011;2752;49.992;8.422;2023-06-22T03:06:31;12.53;;;7.33;;
5458;SDS011;2752;49.992;8.422;2023-06-22T03:08:59;8.77;;;6.10;;
5458;SDS011;2752;49.992;8.422;2023-06-22T03:11:28;13.90;;;6.90;;
5458;SDS011;2752;49.992;8.422;2023-06-22T03:13:57;15.03;;;7.40;;
5458;SDS011;2752;49.992;8.422;2023-06-22T03:16:23;11.30;;;6.60;;
5458;SDS011;2752;49.992;8.422;2023-06-22T03:18:50;15.23;;;7.30;;
5458;SDS011;2752;49.992;8.422;2023-06-22T03:21:18;10.53;;;6.77;;
5458;SDS011;2752;49.992;8.422;2023-06-22T03:23:45;11.20;;;7.40;;
5458;SDS011;2752;49.992;8.422;2023-06-22T03:26:11;11.40;;;7.53;;
5458;SDS011;2752;49.992;8.422;2023-06-22T03:28:38;16.50;;;7.60;;
5458;SDS011;2752;49.992;8.422;2023-06-22T03:31:06;14.23;;;7.20;;
5458;SDS011;2752;49.992;8.422;2023-06-22T03:33:33;10.70;;;7.00;;
5458;SDS011;2752;49.992;8.422;2023-06-22T03:35:59;10.70;;;6.30;;
5458;SDS011;2752;49.992;8.422;2023-06-22T03:38:26;11.03;;;6.73;;
5458;SDS011;2752;49.992;8.422;2023-06-22T03:40:53;9.77;;;6.70;;
5458;SDS011;2752;49.992;8.422;2023-06-22T03:43:19;12.37;;;7.73;;
5458;SDS011;2752;49.992;8.422;2023-06-22T03:45:46;10.40;;;6.00;;
5458;SDS011;2752;49.992;8.422;2023-06-22T03:48:14;15.00;;;6.77;;
5458;SDS011;2752;49.992;8.422;2023-06-22T03:50:41;16.87;;;7.30;;
5458;SDS011;2752;49.992;8.422;2023-06-22T03:53:09;17.70;;;7.03;;
5458;SDS011;2752;49.992;8.422;2023-06-22T03:55:35;12.20;;;6.93;;
5458;SDS011;2752;49.992;8.422;2023-06-22T03:58:02;12.20;;;7.90;;
5458;SDS011;2752;49.992;8.422;2023-06-22T04:00:30;13.93;;;6.90;;
5458;SDS011;2752;49.992;8.422;2023-06-22T04:02:57;16.43;;;7.27;;
5458;SDS011;2752;49.992;8.422;2023-06-22T04:05:25;12.43;;;6.87;;
5458;SDS011;2752;49.992;8.422;2023-06-22T04:07:52;14.47;;;7.30;;
5458;SDS011;2752;49.992;8.422;2023-06-22T04:10:18;16.00;;;7.63;;
5458;SDS011;2752;49.992;8.422;2023-06-22T04:12:45;14.60;;;7.10;;
5458;SDS011;2752;49.992;8.422;2023-06-22T04:15:12;18.13;;;7.40;;
5458;SDS011;2752;49.992;8.422;2023-06-22T04:17:38;11.87;;;7.33;;
5458;SDS011;2752;49.992;8.422;2023-06-22T04:20:05;14.73;;;7.50;;
5458;SDS011;2752;49.992;8.422;2023-06-22T04:22:35;14.90;;;7.07;;
5458;SDS011;2752;49.992;8.422;2023-06-22T04:25:01;13.13;;;6.73;;
5458;SDS011;2752;49.992;8.422;2023-06-22T04:27:28;10.33;;;6.83;;
5458;SDS011;2752;49.992;8.422;2023-06-22T04:29:55;14.40;;;7.57;;
5458;SDS011;2752;49.992;8.422;2023-06-22T04:32:25;12.47;;;7.57;;
5458;SDS011;2752;49.992;8.422;2023-06-22T04:34:51;13.23;;;7.40;;
5458;SDS011;2752;49.992;8.422;2023-06-22T04:37:19;12.13;;;7.00;;
5458;SDS011;2752;49.992;8.422;2023-06-22T04:39:49;11.40;;;7.30;;
5458;SDS011;2752;49.992;8.422;2023-06-22T04:42:26;10.27;;;7.37;;
5458;SDS011;2752;49.992;8.422;2023-06-22T04:44:55;12.87;;;7.57;;
5458;SDS011;2752;49.992;8.422;2023-06-22T04:47:22;12.50;;;7.67;;
5458;SDS011;2752;49.992;8.422;2023-06-22T04:49:52;15.90;;;8.30;;
5458;SDS011;2752;49.992;8.422;2023-06-22T04:52:18;12.33;;;7.83;;
5458;SDS011;2752;49.992;8.422;2023-06-22T04:54:45;14.03;;;8.20;;
5458;SDS011;2752;49.992;8.422;2023-06-22T04:57:15;13.30;;;8.00;;
5458;SDS011;2752;49.992;8.422;2023-06-22T04:59:41;15.13;;;8.27;;
5458;SDS011;2752;49.992;8.422;2023-06-22T05:02:09;14.53;;;7.97;;
5458;SDS011;2752;49.992;8.422;2023-06-22T05:04:36;16.87;;;8.97;;
5458;SDS011;2752;49.992;8.422;2023-06-22T05:07:03;13.77;;;7.63;;
5458;SDS011;2752;49.992;8.422;2023-06-22T05:09:31;17.77;;;8.50;;
5458;SDS011;2752;49.992;8.422;2023-06-22T05:11:58;19.10;;;8.67;;
5458;SDS011;2752;49.992;8.422;2023-06-22T05:14:28;15.93;;;9.50;;
5458;SDS011;2752;49.992;8.422;2023-06-22T05:16:55;15.03;;;8.73;;
5458;SDS011;2752;49.992;8.422;2023-06-22T05:19:24;13.30;;;8.50;;
5458;SDS011;2752;49.992;8.422;2023-06-22T05:21:56;19.50;;;10.70;;
5458;SDS011;2752;49.992;8.422;2023-06-22T05:24:23;14.97;;;9.00;;
5458;SDS011;2752;49.992;8.422;2023-06-22T05:26:49;15.60;;;8.80;;
5458;SDS011;2752;49.992;8.422;2023-06-22T05:29:16;14.97;;;8.40;;
5458;SDS011;2752;49.992;8.422;2023-06-22T05:31:44;15.60;;;8.20;;
5458;SDS011;2752;49.992;8.422;2023-06-22T05:34:11;11.50;;;7.60;;
5458;SDS011;2752;49.992;8.422;2023-06-22T05:36:38;12.20;;;7.30;;
5458;SDS011;2752;49.992;8.422;2023-06-22T05:39:11;12.90;;;7.90;;
5458;SDS011;2752;49.992;8.422;2023-06-22T05:41:42;15.17;;;7.30;;
5458;SDS011;2752;49.992;8.422;2023-06-22T05:44:10;12.90;;;8.17;;
5458;SDS011;2752;49.992;8.422;2023-06-22T05:46:39;12.03;;;7.60;;
5458;SDS011;2752;49.992;8.422;2023-06-22T05:49:11;15.90;;;8.50;;
5458;SDS011;2752;49.992;8.422;2023-06-22T05:51:40;13.30;;;8.47;;
5458;SDS011;2752;49.992;8.422;2023-06-22T05:54:07;15.30;;;8.83;;
5458;SDS011;2752;49.992;8.422;2023-06-22T05:56:35;14.33;;;8.73;;
5458;SDS011;2752;49.992;8.422;2023-06-22T05:59:01;12.07;;;7.50;;
5458;SDS011;2752;49.992;8.422;2023-06-22T06:01:28;13.70;;;8.07;;
5458;SDS011;2752;49.992;8.422;2023-06-22T06:03:56;16.23;;;7.40;;
5458;SDS011;2752;49.992;8.422;2023-06-22T06:06:24;10.70;;;6.93;;
5458;SDS011;2752;49.992;8.422;2023-06-22T06:08:53;14.17;;;7.50;;
5458;SDS011;2752;49.992;8.422;2023-06-22T06:11:20;15.10;;;7.50;;
5458;SDS011;2752;49.992;8.422;2023-06-22T06:13:47;11.77;;;7.50;;
5458;SDS011;2752;49.992;8.422;2023-06-22T06:16:14;15.57;;;7.70;;
5458;SDS011;2752;49.992;8.422;2023-06-22T06:18:40;16.23;;;7.57;;
5458;SDS011;2752;49.992;8.422;2023-06-22T06:21:07;9.10;;;6.37;;
5458;SDS011;2752;49.992;8.422;2023-06-22T06:23:35;11.30;;;7.10;;
5458;SDS011;2752;49.992;8.422;2023-06-22T06:26:01;10.90;;;6.87;;
5458;SDS011;2752;49.992;8.422;2023-06-22T06:28:32;11.50;;;6.40;;
5458;SDS011;2752;49.992;8.422;2023-06-22T06:30:59;12.90;;;7.17;;
5458;SDS011;2752;49.992;8.422;2023-06-22T06:33:25;11.23;;;6.63;;
5458;SDS011;2752;49.992;8.422;2023-06-22T06:35:52;11.87;;;6.73;;
5458;SDS011;2752;49.992;8.422;2023-06-22T06:38:20;12.20;;;7.00;;
5458;SDS011;2752;49.992;8.422;2023-06-22T06:40:48;10.70;;;7.37;;
5458;SDS011;2752;49.992;8.422;2023-06-22T06:43:15;15.40;;;7.17;;
5458;SDS011;2752;49.992;8.422;2023-06-22T06:45:42;11.53;;;6.70;;
5458;SDS011;2752;49.992;8.422;2023-06-22T06:48:08;10.40;;;7.10;;
5458;SDS011;2752;49.992;8.422;2023-06-22T06:50:35;12.87;;;6.33;;
5458;SDS011;2752;49.992;8.422;2023-06-22T06:53:02;17.37;;;7.77;;
5458;SDS011;2752;49.992;8.422;2023-06-22T06:55:28;17.53;;;7.40;;
5458;SDS011;2752;49.992;8.422;2023-06-22T06:57:59;8.37;;;6.40;;
5458;SDS011;2752;49.992;8.422;2023-06-22T07:00:25;12.37;;;7.23;;
5458;SDS011;2752;49.992;8.422;2023-06-22T07:02:52;11.80;;;6.83;;
5458;SDS011;2752;49.992;8.422;2023-06-22T07:05:19;14.00;;;7.27;;
5458;SDS011;2752;49.992;8.422;2023-06-22T07:07:46;10.00;;;6.63;;
5458;SDS011;2752;49.992;8.422;2023-06-22T07:10:12;10.33;;;6.23;;
5458;SDS011;2752;49.992;8.422;2023-06-22T07:12:40;11.50;;;7.33;;
5458;SDS011;2752;49.992;8.422;2023-06-22T07:15:08;12.73;;;6.87;;
5458;SDS011;2752;49.992;8.422;2023-06-22T07:17:37;12.10;;;7.37;;
5458;SDS011;2752;49.992;8.422;2023-06-22T07:20:06;11.50;;;7.20;;
5458;SDS011;2752;49.992;8.422;2023-06-22T07:22:35;11.97;;;6.87;;
5458;SDS011;2752;49.992;8.422;2023-06-22T07:25:01;11.87;;;7.10;;
5458;SDS011;2752;49.992;8.422;2023-06-22T07:27:34;11.90;;;6.90;;
5458;SDS011;2752;49.992;8.422;2023-06-22T07:30:02;11.30;;;6.20;;
5458;SDS011;2752;49.992;8.422;2023-06-22T07:32:32;11.20;;;6.20;;
5458;SDS011;2752;49.992;8.422;2023-06-22T07:34:58;12.10;;;6.70;;
5458;SDS011;2752;49.992;8.422;2023-06-22T07:37:26;10.43;;;7.27;;
5458;SDS011;2752;49.992;8.422;2023-06-22T07:39:54;12.70;;;7.13;;
5458;SDS011;2752;49.992;8.422;2023-06-22T07:42:23;14.97;;;7.17;;
5458;SDS011;2752;49.992;8.422;2023-06-22T07:44:50;11.03;;;6.97;;
5458;SDS011;2752;49.992;8.422;2023-06-22T07:47:16;9.73;;;6.67;;
5458;SDS011;2752;49.992;8.422;2023-06-22T07:49:45;12.87;;;6.70;;
5458;SDS011;2752;49.992;8.422;2023-06-22T07:52:12;11.07;;;6.50;;
5458;SDS011;2752;49.992;8.422;2023-06-22T07:54:39;11.03;;;7.30;;
5458;SDS011;2752;49.992;8.422;2023-06-22T07:57:05;12.10;;;8.27;;
5458;SDS011;2752;49.992;8.422;2023-06-22T07:59:32;11.87;;;7.67;;
5458;SDS011;2752;49.992;8.422;2023-06-22T08:01:59;10.67;;;6.77;;
5458;SDS011;2752;49.992;8.422;2023-06-22T08:04:26;10.80;;;7.13;;
5458;SDS011;2752;49.992;8.422;2023-06-22T08:06:55;12.90;;;7.30;;
5458;SDS011;2752;49.992;8.422;2023-06-22T08:09:21;13.40;;;7.10;;
5458;SDS011;2752;49.992;8.422;2023-06-22T08:11:48;13.03;;;7.97;;
5458;SDS011;2752;49.992;8.422;2023-06-22T08:14:15;11.77;;;7.03;;
5458;SDS011;2752;49.992;8.422;2023-06-22T08:16:42;11.33;;;6.57;;
5458;SDS011;2752;49.992;8.422;2023-06-22T08:19:08;12.43;;;6.80;;
5458;SDS011;2752;49.992;8.422;2023-06-22T08:21:35;13.90;;;7.30;;
5458;SDS011;2752;49.992;8.422;2023-06-22T08:24:04;14.50;;;7.30;;
5458;SDS011;2752;49.992;8.422;2023-06-22T08:26:32;11.07;;;6.93;;
5458;SDS011;2752;49.992;8.422;2023-06-22T08:29:01;13.30;;;7.10;;
5458;SDS011;2752;49.992;8.422;2023-06-22T08:31:28;9.90;;;6.40;;
5458;SDS011;2752;49.992;8.422;2023-06-22T08:33:57;10.80;;;7.57;;
5458;SDS011;2752;49.992;8.422;2023-06-22T08:36:23;11.40;;;6.97;;
5458;SDS011;2752;49.992;8.422;2023-06-22T08:38:54;14.23;;;7.53;;
5458;SDS011;2752;49.992;8.422;2023-06-22T08:41:27;10.53;;;7.33;;
5458;SDS011;2752;49.992;8.422;2023-06-22T08:43:54;13.43;;;7.97;;
5458;SDS011;2752;49.992;8.422;2023-06-22T08:46:20;11.80;;;7.93;;
5458;SDS011;2752;49.992;8.422;2023-06-22T08:48:55;12.23;;;8.00;;
5458;SDS011;2752;49.992;8.422;2023-06-22T08:51:21;12.20;;;7.23;;
5458;SDS011;2752;49.992;8.422;2023-06-22T08:53:48;11.60;;;7.60;;
5458;SDS011;2752;49.992;8.422;2023-06-22T08:56:15;12.40;;;7.37;;
5458;SDS011;2752;49.992;8.422;2023-06-22T08:58:43;8.93;;;5.93;;
5458;SDS011;2752;49.992;8.422;2023-06-22T09:01:09;10.20;;;6.73;;
5458;SDS011;2752;49.992;8.422;2023-06-22T09:03:36;9.03;;;6.27;;
5458;SDS011;2752;49.992;8.422;2023-06-22T09:06:03;11.93;;;7.33;;
5458;SDS011;2752;49.992;8.422;2023-06-22T09:08:29;13.07;;;7.93;;
5458;SDS011;2752;49.992;8.422;2023-06-22T09:10:56;10.70;;;7.67;;
5458;SDS011;2752;49.992;8.422;2023-06-22T09:13:23;11.77;;;7.10;;
5458;SDS011;2752;49.992;8.422;2023-06-22T09:15:51;10.30;;;6.97;;
5458;SDS011;2752;49.992;8.422;2023-06-22T09:18:17;13.43;;;6.47;;
5458;SDS011;2752;49.992;8.422;2023-06-22T09:20:44;14.17;;;7.27;;
5458;SDS011;2752;49.992;8.422;2023-06-22T09:23:11;12.37;;;8.03;;
5458;SDS011;2752;49.992;8.422;2023-06-22T09:25:38;10.40;;;7.70;;
5458;SDS011;2752;49.992;8.422;2023-06-22T09:28:05;10.77;;;6.90;;
5458;SDS011;2752;49.992;8.422;2023-06-22T09:30:31;9.97;;;7.50;;
5458;SDS011;2752;49.992;8.422;2023-06-22T09:32:59;14.40;;;6.60;;
5458;SDS011;2752;49.992;8.422;2023-06-22T09:35:27;11.70;;;6.97;;
5458;SDS011;2752;49.992;8.422;2023-06-22T09:37:53;11.20;;;6.80;;
5458;SDS011;2752;49.992;8.422;2023-06-22T09:40:20;9.07;;;6.57;;
5458;SDS011;2752;49.992;8.422;2023-06-22T09:42:47;9.70;;;6.03;;
5458;SDS011;2752;49.992;8.422;2023-06-22T09:45:13;12.53;;;6.30;;
5458;SDS011;2752;49.992;8.422;2023-06-22T09:47:40;7.67;;;6.23;;
5458;SDS011;2752;49.992;8.422;2023-06-22T09:50:09;13.30;;;7.03;;
5458;SDS011;2752;49.992;8.422;2023-06-22T09:52:36;9.43;;;6.33;;
5458;SDS011;2752;49.992;8.422;2023-06-22T09:55:02;10.40;;;5.73;;
5458;SDS011;2752;49.992;8.422;2023-06-22T09:57:30;9.33;;;6.50;;
5458;SDS011;2752;49.992;8.422;2023-06-22T09:59:56;12.53;;;6.30;;
5458;SDS011;2752;49.992;8.422;2023-06-22T10:02:23;17.63;;;6.70;;
5458;SDS011;2752;49.992;8.422;2023-06-22T10:04:49;8.33;;;5.93;;
5458;SDS011;2752;49.992;8.422;2023-06-22T10:07:17;8.93;;;6.47;;
5458;SDS011;2752;49.992;8.422;2023-06-22T10:09:44;10.27;;;6.10;;
5458;SDS011;2752;49.992;8.422;2023-06-22T10:12:11;9.10;;;6.40;;
5458;SDS011;2752;49.992;8.422;2023-06-22T10:14:37;9.03;;;6.23;;
5458;SDS011;2752;49.992;8.422;2023-06-22T10:17:04;8.87;;;5.63;;
5458;SDS011;2752;49.992;8.422;2023-06-22T10:19:32;10.10;;;5.50;;
5458;SDS011;2752;49.992;8.422;2023-06-22T10:22:01;10.40;;;5.93;;
5458;SDS011;2752;49.992;8.422;2023-06-22T10:24:30;10.20;;;5.17;;
5458;SDS011;2752;49.992;8.422;2023-06-22T10:26:56;8.90;;;5.37;;
5458;SDS011;2752;49.992;8.422;2023-06-22T10:29:23;11.00;;;5.80;;
5458;SDS011;2752;49.992;8.422;2023-06-22T10:31:50;5.80;;;5.20;;
5458;SDS011;2752;49.992;8.422;2023-06-22T10:34:16;6.53;;;4.73;;
5458;SDS011;2752;49.992;8.422;2023-06-22T10:36:43;13.70;;;5.50;;
5458;SDS011;2752;49.992;8.422;2023-06-22T10:39:12;7.20;;;4.97;;
5458;SDS011;2752;49.992;8.422;2023-06-22T10:41:40;8.60;;;4.93;;
5458;SDS011;2752;49.992;8.422;2023-06-22T10:44:06;10.13;;;5.07;;
5458;SDS011;2752;49.992;8.422;2023-06-22T10:46:33;5.80;;;4.37;;
5458;SDS011;2752;49.992;8.422;2023-06-22T10:49:00;6.83;;;4.10;;
5458;SDS011;2752;49.992;8.422;2023-06-22T10:51:26;6.40;;;5.13;;
5458;SDS011;2752;49.992;8.422;2023-06-22T10:53:53;12.23;;;5.23;;
5458;SDS011;2752;49.992;8.422;2023-06-22T10:56:20;8.30;;;5.30;;
5458;SDS011;2752;49.992;8.422;2023-06-22T10:58:48;6.10;;;4.60;;
5458;SDS011;2752;49.992;8.422;2023-06-22T11:01:15;7.20;;;4.70;;
5458;SDS011;2752;49.992;8.422;2023-06-22T11:03:41;6.87;;;4.77;;
5458;SDS011;2752;49.992;8.422;2023-06-22T11:06:08;8.32;;;5.22;;
5458;SDS011;2752;49.992;8.422;2023-06-22T11:08:35;8.20;;;5.07;;
5458;SDS011;2752;49.992;8.422;2023-06-22T11:11:01;6.22;;;5.15;;
5458;SDS011;2752;49.992;8.422;2023-06-22T11:13:28;18.45;;;5.28;;
5458;SDS011;2752;49.992;8.422;2023-06-22T11:15:56;9.50;;;5.97;;
5458;SDS011;2752;49.992;8.422;2023-06-22T11:18:23;8.47;;;4.90;;
5458;SDS011;2752;49.992;8.422;2023-06-22T11:20:49;11.90;;;5.43;;
5458;SDS011;2752;49.992;8.422;2023-06-22T11:23:16;7.37;;;5.00;;
5458;SDS011;2752;49.992;8.422;2023-06-22T11:25:42;8.18;;;5.25;;
5458;SDS011;2752;49.992;8.422;2023-06-22T11:28:09;8.75;;;4.72;;
5458;SDS011;2752;49.992;8.422;2023-06-22T11:30:36;7.95;;;5.05;;
5458;SDS011;2752;49.992;8.422;2023-06-22T11:33:04;8.50;;;5.70;;
5458;SDS011;2752;49.992;8.422;2023-06-22T11:35:30;16.00;;;4.85;;
5458;SDS011;2752;49.992;8.422;2023-06-22T11:37:57;8.30;;;4.83;;
5458;SDS011;2752;49.992;8.422;2023-06-22T11:40:23;9.68;;;5.28;;
5458;SDS011;2752;49.992;8.422;2023-06-22T11:42:50;8.73;;;5.68;;
5458;SDS011;2752;49.992;8.422;2023-06-22T11:45:17;9.38;;;5.57;;
5458;SDS011;2752;49.992;8.422;2023-06-22T11:47:45;13.20;;;5.50;;
5458;SDS011;2752;49.992;8.422;2023-06-22T11:50:13;9.57;;;5.22;;
5458;SDS011;2752;49.992;8.422;2023-06-22T11:52:40;11.73;;;5.10;;
5458;SDS011;2752;49.992;8.422;2023-06-22T11:55:06;8.70;;;5.22;;
5458;SDS011;2752;49.992;8.422;2023-06-22T11:57:34;8.35;;;4.95;;
5458;SDS011;2752;49.992;8.422;2023-06-22T12:00:02;8.18;;;5.22;;
5458;SDS011;2752;49.992;8.422;2023-06-22T12:02:32;8.00;;;5.35;;
5458;SDS011;2752;49.992;8.422;2023-06-22T12:04:58;7.50;;;5.40;;
5458;SDS011;2752;49.992;8.422;2023-06-22T12:07:26;10.57;;;5.93;;
5458;SDS011;2752;49.992;8.422;2023-06-22T12:09:53;7.40;;;5.28;;
5458;SDS011;2752;49.992;8.422;2023-06-22T12:12:20;13.48;;;5.30;;
5458;SDS011;2752;49.992;8.422;2023-06-22T12:14:46;7.72;;;5.10;;
5458;SDS011;2752;49.992;8.422;2023-06-22T12:17:13;9.63;;;5.40;;
5458;SDS011;2752;49.992;8.422;2023-06-22T12:19:39;14.13;;;5.45;;
5458;SDS011;2752;49.992;8.422;2023-06-22T12:22:06;8.18;;;5.03;;
5458;SDS011;2752;49.992;8.422;2023-06-22T12:24:34;9.02;;;4.90;;
5458;SDS011;2752;49.992;8.422;2023-06-22T12:27:01;10.13;;;5.35;;
5458;SDS011;2752;49.992;8.422;2023-06-22T12:29:28;12.25;;;5.88;;
5458;SDS011;2752;49.992;8.422;2023-06-22T12:31:55;8.63;;;5.65;;
5458;SDS011;2752;49.992;8.422;2023-06-22T12:34:21;12.90;;;6.18;;
5458;SDS011;2752;49.992;8.422;2023-06-22T12:36:48;8.18;;;5.85;;
5458;SDS011;2752;49.992;8.422;2023-06-22T12:39:15;10.00;;;5.55;;
5458;SDS011;2752;49.992;8.422;2023-06-22T12:41:43;9.13;;;5.80;;
5458;SDS011;2752;49.992;8.422;2023-06-22T12:44:14;7.93;;;6.10;;
5458;SDS011;2752;49.992;8.422;2023-06-22T12:46:42;9.82;;;6.13;;
5458;SDS011;2752;49.992;8.422;2023-06-22T12:49:10;12.18;;;6.70;;
5458;SDS011;2752;49.992;8.422;2023-06-22T12:51:39;8.93;;;5.57;;
5458;SDS011;2752;49.992;8.422;2023-06-22T12:54:06;8.43;;;5.43;;
5458;SDS011;2752;49.992;8.422;2023-06-22T12:56:33;10.73;;;5.72;;
5458;SDS011;2752;49.992;8.422;2023-06-22T12:59:02;9.35;;;6.28;;
5458;SDS011;2752;49.992;8.422;2023-06-22T13:01:29;8.27;;;5.65;;
5458;SDS011;2752;49.992;8.422;2023-06-22T13:03:56;9.05;;;5.40;;
5458;SDS011;2752;49.992;8.422;2023-06-22T13:06:23;13.05;;;6.10;;
5458;SDS011;2752;49.992;8.422;2023-06-22T13:08:50;10.25;;;5.93;;
5458;SDS011;2752;49.992;8.422;2023-06-22T13:11:17;8.73;;;5.15;;
5458;SDS011;2752;49.992;8.422;2023-06-22T13:13:44;9.02;;;6.07;;
5458;SDS011;2752;49.992;8.422;2023-06-22T13:16:12;7.85;;;5.53;;
5458;SDS011;2752;49.992;8.422;2023-06-22T13:18:39;8.82;;;5.47;;
5458;SDS011;2752;49.992;8.422;2023-06-22T13:21:06;14.95;;;5.68;;
5458;SDS011;2752;49.992;8.422;2023-06-22T13:23:32;10.68;;;5.72;;
5458;SDS011;2752;49.992;8.422;2023-06-22T13:26:00;7.80;;;5.10;;
5458;SDS011;2752;49.992;8.422;2023-06-22T13:28:27;10.65;;;5.95;;
5458;SDS011;2752;49.992;8.422;2023-06-22T13:30:55;9.75;;;5.57;;
5458;SDS011;2752;49.992;8.422;2023-06-22T13:33:23;8.93;;;5.63;;
5458;SDS011;2752;49.992;8.422;2023-06-22T13:35:49;8.98;;;5.78;;
5458;SDS011;2752;49.992;8.422;2023-06-22T13:38:16;8.02;;;5.47;;
5458;SDS011;2752;49.992;8.422;2023-06-22T13:40:43;8.90;;;5.32;;
5458;SDS011;2752;49.992;8.422;2023-06-22T13:43:09;6.20;;;4.45;;
5458;SDS011;2752;49.992;8.422;2023-06-22T13:45:36;7.95;;;5.47;;
5458;SDS011;2752;49.992;8.422;2023-06-22T13:48:03;13.85;;;4.75;;
5458;SDS011;2752;49.992;8.422;2023-06-22T13:50:31;8.50;;;5.10;;
5458;SDS011;2752;49.992;8.422;2023-06-22T13:52:58;11.75;;;4.25;;
5458;SDS011;2752;49.992;8.422;2023-06-22T13:55:25;8.75;;;3.53;;
5458;SDS011;2752;49.992;8.422;2023-06-22T13:57:51;7.35;;;3.28;;
5458;SDS011;2752;49.992;8.422;2023-06-22T14:00:18;8.65;;;3.60;;
5458;SDS011;2752;49.992;8.422;2023-06-22T14:02:45;5.57;;;3.67;;
5458;SDS011;2752;49.992;8.422;2023-06-22T14:05:12;8.85;;;4.28;;
5458;SDS011;2752;49.992;8.422;2023-06-22T14:07:40;8.73;;;4.30;;
5458;SDS011;2752;49.992;8.422;2023-06-22T14:10:06;9.90;;;3.97;;
5458;SDS011;2752;49.992;8.422;2023-06-22T14:12:34;5.65;;;3.63;;
5458;SDS011;2752;49.992;8.422;2023-06-22T14:15:00;4.88;;;3.17;;
5458;SDS011;2752;49.992;8.422;2023-06-22T14:17:27;6.68;;;3.50;;
5458;SDS011;2752;49.992;8.422;2023-06-22T14:19:54;10.02;;;3.70;;
5458;SDS011;2752;49.992;8.422;2023-06-22T14:22:20;9.02;;;4.43;;
5458;SDS011;2752;49.992;8.422;2023-06-22T14:24:49;9.63;;;3.88;;
5458;SDS011;2752;49.992;8.422;2023-06-22T14:27:16;7.75;;;3.95;;
5458;SDS011;2752;49.992;8.422;2023-06-22T14:29:43;10.48;;;5.68;;
5458;SDS011;2752;49.992;8.422;2023-06-22T14:32:10;9.60;;;3.92;;
5458;SDS011;2752;49.992;8.422;2023-06-22T14:34:37;11.23;;;3.67;;
5458;SDS011;2752;49.992;8.422;2023-06-22T14:37:04;9.88;;;3.55;;
5458;SDS011;2752;49.992;8.422;2023-06-22T14:39:32;12.82;;;3.80;;
5458;SDS011;2752;49.992;8.422;2023-06-22T14:42:00;7.30;;;3.55;;
5458;SDS011;2752;49.992;8.422;2023-06-22T14:44:28;11.82;;;4.45;;
5458;SDS011;2752;49.992;8.422;2023-06-22T14:46:54;8.23;;;3.95;;
5458;SDS011;2752;49.992;8.422;2023-06-22T14:49:21;6.13;;;3.92;;
5458;SDS011;2752;49.992;8.422;2023-06-22T14:51:48;10.80;;;4.07;;
5458;SDS011;2752;49.992;8.422;2023-06-22T14:54:15;9.43;;;3.65;;
5458;SDS011;2752;49.992;8.422;2023-06-22T14:56:42;6.90;;;3.55;;
5458;SDS011;2752;49.992;8.422;2023-06-22T14:59:10;9.60;;;3.45;;
5458;SDS011;2752;49.992;8.422;2023-06-22T15:01:37;8.00;;;3.28;;
5458;SDS011;2752;49.992;8.422;2023-06-22T15:04:03;6.72;;;3.90;;
5458;SDS011;2752;49.992;8.422;2023-06-22T15:06:30;6.78;;;4.10;;